Terminal Aerodrome Forecast
Issued by NWS El Paso, TX

Current Version | Previous Version | Text Only | Print | Product List | Glossary On
Versions: 1 2 3 4 5 6 7 8 9 10 11 12
000
FTUS44 KEPZ 300500
TAFELP
TAF
KELP 300520Z 3006/3106 05007KT P6SM SCT120 OVC220
     FM301800 15009KT P6SM SCT070 BKN100 BKN200
     FM302200 23009KT P6SM VCSH SCT070 BKN100 BKN200=

USA.gov is the U.S. government's official web portal to all federal, state and local government web resources and services.